Meadow Vista, California
Current Conditions -  °F | °C
As of 6:55 AM on Sunday 21 Dec 2014 (Local Time) from KAUN Reporting Station
Overcast Overcast  
Wind Chill: 52°   Ceiling: 300
Heat Index: 52°   Visibility: 6mi
Dew Point: 52°   Wind: 9mph
Humidity: 100%   Direction: 140°SE
Pressure: 30.25"   Gusts: NA
Location:  39°N, 121.03°W
Report Text: KAUN 211455Z AUTO 14008KT 6SM OVC003 11/11 A3025 RMK AO1
Loading
Personal Weather Stations






























Interactive Weather Map New forecast layout! Learn more

10-Day Weather Forecast

Advertisements
Track Severe Weather on mobile